Urb Castellana Gdn, Puerto Rico
Current Conditions -  °F | °C
As of 11:56 AM on Friday 31 Oct 2014 (Local Time) from TJSJ Reporting Station
Light Rain Light Rain  
Wind Chill: 87°   Ceiling: Unl
Heat Index: 99°   Visibility: 10mi
Dew Point: 77°   Wind: 13mph
Humidity: 72%   Direction: 50°NE
Pressure: 29.88"   Gusts: NA
Location:  18.4298°N, 65.9816°W
Report Text: TJSJ 311556Z 05011KT 10SM -RA FEW020 SCT034 SCT085 31/25 A2988 RMK AO2 RAB51 SLP117 P0000 T03060250
Loading
Personal Weather Stations






























Interactive Weather Map
Tropical Storm Tracking
New forecast layout! Learn more

10-Day Weather Forecast

Advertisements
Track Severe Weather on mobile